createdAt,value
2022-10-19T00:00:12.251Z,11.80
2022-10-19T00:03:04.347Z,8.40
2022-10-19T00:05:36.349Z,7.50
2022-10-19T00:08:09.226Z,9.10
2022-10-19T00:10:43.722Z,10.60
2022-10-19T00:13:15.608Z,10.20
2022-10-19T00:15:47.680Z,9.80
2022-10-19T00:18:19.679Z,10.20
2022-10-19T00:20:51.721Z,7.60
2022-10-19T00:23:23.682Z,10.90
2022-10-19T00:25:59.643Z,11.20
2022-10-19T00:28:31.831Z,9.30
2022-10-19T00:31:07.485Z,10.50
2022-10-19T00:33:40.062Z,11.00
2022-10-19T00:36:18.892Z,7.50
2022-10-19T00:38:51.136Z,10.50
2022-10-19T00:41:24.038Z,15.00
2022-10-19T00:43:59.574Z,24.60
2022-10-19T00:46:33.671Z,24.90
2022-10-19T00:49:10.724Z,20.60
2022-10-19T00:51:47.832Z,21.10
2022-10-19T00:54:20.724Z,38.50
2022-10-19T00:56:56.290Z,58.30
2022-10-19T00:59:31.915Z,121.60
2022-10-19T01:02:06.478Z,71.10
2022-10-19T01:04:41.575Z,37.10
2022-10-19T01:07:13.955Z,20.60
2022-10-19T01:09:46.112Z,14.40
2022-10-19T01:12:31.532Z,9.30
2022-10-19T01:15:19.585Z,7.50
2022-10-19T01:18:01.106Z,8.20
2022-10-19T01:20:55.529Z,7.70
2022-10-19T01:23:57.247Z,11.10
2022-10-19T01:26:51.220Z,5.90
2022-10-19T01:29:40.570Z,8.40
2022-10-19T01:32:18.001Z,8.00
2022-10-19T01:34:56.099Z,7.40
2022-10-19T01:37:35.580Z,9.10
2022-10-19T01:40:11.949Z,7.70
2022-10-19T01:42:47.809Z,9.80
2022-10-19T01:45:28.338Z,7.70
2022-10-19T01:48:07.070Z,9.20
2022-10-19T01:50:45.227Z,5.90
2022-10-19T01:53:19.333Z,12.80
2022-10-19T01:55:54.233Z,9.10
2022-10-19T01:58:30.035Z,10.30
2022-10-19T02:01:06.494Z,11.20
2022-10-19T02:03:40.663Z,71.20
2022-10-19T02:06:15.113Z,14.90
2022-10-19T02:08:49.754Z,15.10
2022-10-19T02:11:23.282Z,14.40
2022-10-19T02:14:02.187Z,9.80
2022-10-19T02:16:40.051Z,10.50
2022-10-19T02:19:14.562Z,10.20
2022-10-19T02:21:46.827Z,8.10
2022-10-19T02:24:19.139Z,6.30
2022-10-19T02:26:51.431Z,10.10
2022-10-19T02:29:23.747Z,7.70
2022-10-19T02:31:55.894Z,8.50
2022-10-19T02:34:28.569Z,6.20
2022-10-19T02:37:00.810Z,12.00
2022-10-19T02:39:33.136Z,10.80
2022-10-19T02:42:11.175Z,7.40
2022-10-19T02:44:48.640Z,6.10
2022-10-19T02:47:23.702Z,8.40
2022-10-19T02:49:56.037Z,6.60
2022-10-19T02:52:28.083Z,6.10
2022-10-19T02:55:00.125Z,39.50
2022-10-19T02:57:32.793Z,13.00
2022-10-19T03:00:06.133Z,17.20
2022-10-19T03:02:38.228Z,10.50
2022-10-19T03:05:11.647Z,18.60
2022-10-19T03:07:43.575Z,12.60
2022-10-19T03:10:15.559Z,31.10
2022-10-19T03:12:47.548Z,86.40
2022-10-19T03:15:20.681Z,26.90
2022-10-19T03:17:55.648Z,54.90
2022-10-19T03:20:27.611Z,73.20
2022-10-19T03:22:59.630Z,47.20
2022-10-19T03:25:31.603Z,13.40
2022-10-19T03:28:03.797Z,7.60
2022-10-19T03:30:35.760Z,41.60
2022-10-19T03:33:07.750Z,34.30
2022-10-19T03:35:39.698Z,25.00
2022-10-19T03:38:11.675Z,21.80
2022-10-19T03:40:43.893Z,14.40
2022-10-19T03:43:15.794Z,22.90
2022-10-19T03:45:50.038Z,16.10
2022-10-19T03:48:22.103Z,38.30
2022-10-19T03:51:02.153Z,18.50
2022-10-19T03:53:34.423Z,29.10
2022-10-19T03:56:09.318Z,23.90
2022-10-19T04:01:14.829Z,9.60
2022-10-19T04:03:46.935Z,21.60
2022-10-19T04:06:22.123Z,53.70
2022-10-19T04:08:54.494Z,69.30
2022-10-19T04:11:28.644Z,23.90
2022-10-19T04:14:01.937Z,50.10
2022-10-19T04:16:34.593Z,105.50
2022-10-19T04:19:06.579Z,82.70
2022-10-19T04:21:40.543Z,62.60
2022-10-19T04:24:14.503Z,36.00
2022-10-19T04:26:48.514Z,52.60
2022-10-19T04:29:24.969Z,57.10
2022-10-19T04:32:00.101Z,20.10
2022-10-19T04:34:35.167Z,53.80
2022-10-19T04:37:09.648Z,31.00
2022-10-19T04:39:43.479Z,27.30
2022-10-19T04:42:15.373Z,19.80
2022-10-19T04:44:47.280Z,61.50
2022-10-19T04:47:19.218Z,68.00
2022-10-19T04:49:51.217Z,22.10
2022-10-19T04:52:23.156Z,59.00
2022-10-19T04:54:55.163Z,36.20
2022-10-19T04:57:27.073Z,54.20
2022-10-19T04:59:59.067Z,123.40
2022-10-19T05:02:30.974Z,109.30
2022-10-19T05:05:03.014Z,135.30
2022-10-19T05:07:35.302Z,58.40
2022-10-19T05:10:09.684Z,48.00
2022-10-19T05:12:41.657Z,18.60
2022-10-19T05:15:14.094Z,12.30
2022-10-19T05:17:46.081Z,28.00
2022-10-19T05:20:18.070Z,6.20
2022-10-19T05:22:50.021Z,5.40
2022-10-19T05:25:21.983Z,8.50
2022-10-19T05:27:56.802Z,4.10
2022-10-19T05:32:59.129Z,7.00
2022-10-19T05:35:31.162Z,6.80
2022-10-19T05:38:03.099Z,3.50
2022-10-19T05:40:35.190Z,4.90
2022-10-19T05:43:07.102Z,7.10
2022-10-19T05:45:39.053Z,6.30
2022-10-19T05:48:10.937Z,6.30
2022-10-19T05:50:53.178Z,3.90
2022-10-19T05:53:25.262Z,5.90
2022-10-19T05:55:57.266Z,7.00
2022-10-19T05:58:29.177Z,11.60
2022-10-19T06:01:02.909Z,9.20
2022-10-19T06:03:35.295Z,7.50
2022-10-19T06:06:08.994Z,4.70
2022-10-19T06:08:41.467Z,4.60
2022-10-19T06:11:15.697Z,4.70
2022-10-19T06:13:50.469Z,4.80
2022-10-19T06:18:53.365Z,24.50
2022-10-19T06:21:27.875Z,5.30
2022-10-19T06:24:01.653Z,6.00
2022-10-19T06:26:35.082Z,6.60
2022-10-19T06:29:07.672Z,4.70
2022-10-19T06:31:39.714Z,3.20
2022-10-19T06:34:11.729Z,5.40
2022-10-19T06:36:43.743Z,4.60
2022-10-19T06:39:15.640Z,7.10
2022-10-19T06:41:47.582Z,5.20
2022-10-19T06:44:30.135Z,6.20
2022-10-19T06:47:02.200Z,4.30
2022-10-19T06:49:35.950Z,6.10
2022-10-19T06:52:08.386Z,4.80
2022-10-19T06:54:40.322Z,4.00
2022-10-19T06:57:12.394Z,4.70
2022-10-19T06:59:44.342Z,4.70
2022-10-19T07:02:16.713Z,3.50
2022-10-19T07:04:48.670Z,12.00
2022-10-19T07:07:20.711Z,24.30
2022-10-19T07:09:53.635Z,7.10
2022-10-19T07:12:25.662Z,3.90
2022-10-19T07:14:58.231Z,2.80
2022-10-19T07:17:30.272Z,9.30
2022-10-19T07:20:02.169Z,3.60
2022-10-19T07:22:34.263Z,7.00
2022-10-19T07:25:06.891Z,7.30
2022-10-19T07:27:40.670Z,8.70
2022-10-19T07:30:13.527Z,12.00
2022-10-19T07:32:47.115Z,11.60
2022-10-19T07:35:19.469Z,9.60
2022-10-19T07:37:51.426Z,11.00
2022-10-19T07:40:23.437Z,8.60
2022-10-19T07:42:55.518Z,11.40
2022-10-19T07:45:27.521Z,14.20
2022-10-19T07:47:59.883Z,9.30
2022-10-19T07:50:31.851Z,9.30
2022-10-19T07:53:05.411Z,9.10
2022-10-19T07:55:37.998Z,19.00
2022-10-19T07:58:09.935Z,12.60
2022-10-19T08:00:41.900Z,24.70
2022-10-19T08:06:07.847Z,27.10
2022-10-19T08:08:40.840Z,13.10
2022-10-19T08:11:14.717Z,9.50
2022-10-19T08:13:47.091Z,10.70
2022-10-19T08:16:27.449Z,11.00
2022-10-19T08:19:02.419Z,5.60
2022-10-19T08:21:34.905Z,9.40
2022-10-19T08:24:07.732Z,8.80
2022-10-19T08:26:40.700Z,7.00
2022-10-19T08:29:15.063Z,4.40
2022-10-19T08:31:48.501Z,4.00
2022-10-19T08:34:20.424Z,4.50
2022-10-19T08:36:52.338Z,7.50
2022-10-19T08:39:24.331Z,5.70
2022-10-19T08:42:03.478Z,7.00
2022-10-19T08:45:04.055Z,6.20
2022-10-19T08:47:55.098Z,5.80
2022-10-19T08:50:31.809Z,5.20
2022-10-19T08:53:06.279Z,3.80
2022-10-19T08:55:54.034Z,10.00
2022-10-19T08:58:37.487Z,10.40
2022-10-19T09:01:16.494Z,9.90
2022-10-19T09:03:56.326Z,7.70
2022-10-19T09:06:35.550Z,9.40
2022-10-19T09:09:11.538Z,10.70
2022-10-19T09:11:47.500Z,9.60
2022-10-19T09:14:24.467Z,9.40
2022-10-19T09:17:01.111Z,15.00
2022-10-19T09:19:33.549Z,15.20
2022-10-19T09:22:08.938Z,11.80
2022-10-19T09:24:48.694Z,10.20
2022-10-19T09:27:24.407Z,10.20
2022-10-19T09:29:59.496Z,11.50
2022-10-19T09:32:36.601Z,17.70
2022-10-19T09:35:19.500Z,104.50
2022-10-19T09:37:52.674Z,35.20
2022-10-19T09:40:27.726Z,21.90
2022-10-19T09:43:08.699Z,20.40
2022-10-19T09:45:47.349Z,17.70
2022-10-19T09:48:27.830Z,32.40
2022-10-19T09:51:02.299Z,13.20
2022-10-19T09:53:34.324Z,12.20
2022-10-19T09:56:18.494Z,12.30
2022-10-19T09:58:53.300Z,12.30
2022-10-19T10:01:40.226Z,15.90
2022-10-19T10:04:17.814Z,20.00
2022-10-19T10:09:27.335Z,15.70
2022-10-19T10:12:01.062Z,12.80
2022-10-19T10:14:36.485Z,14.50
2022-10-19T10:17:15.696Z,9.20
2022-10-19T10:20:06.810Z,9.80
2022-10-19T10:22:39.349Z,7.70
2022-10-19T10:25:20.342Z,8.40
2022-10-19T10:28:01.592Z,8.60
2022-10-19T10:30:38.063Z,7.20
2022-10-19T10:33:33.186Z,9.90
2022-10-19T10:36:11.094Z,10.10
2022-10-19T10:38:47.415Z,11.80
2022-10-19T10:41:24.136Z,19.50
2022-10-19T10:44:00.985Z,10.30
2022-10-19T10:46:43.795Z,33.30
2022-10-19T10:49:25.050Z,70.70
2022-10-19T10:51:59.541Z,25.50
2022-10-19T10:54:32.962Z,22.50
2022-10-19T10:57:16.914Z,7.50
2022-10-19T10:59:56.073Z,19.10
2022-10-19T11:02:40.386Z,19.70
2022-10-19T11:05:20.752Z,14.50
2022-10-19T11:07:57.795Z,20.20
2022-10-19T11:10:34.343Z,17.20
2022-10-19T11:13:15.602Z,19.00
2022-10-19T11:15:54.845Z,9.30
2022-10-19T11:18:31.408Z,10.50
2022-10-19T11:21:12.207Z,15.40
2022-10-19T11:23:56.339Z,9.90
2022-10-19T11:26:43.106Z,6.60
2022-10-19T11:29:28.623Z,51.10
2022-10-19T11:32:00.917Z,26.80
2022-10-19T11:34:46.101Z,11.70
2022-10-19T11:40:06.362Z,9.40
2022-10-19T11:42:52.343Z,8.10
2022-10-19T11:45:36.346Z,18.50
2022-10-19T11:48:35.149Z,15.60
2022-10-19T11:51:21.660Z,12.10
2022-10-19T11:54:11.176Z,15.30
2022-10-19T11:57:02.888Z,32.40
2022-10-19T11:59:44.261Z,15.30
2022-10-19T12:02:43.022Z,8.50
2022-10-19T12:05:18.674Z,21.50
2022-10-19T12:08:03.814Z,14.00
2022-10-19T12:13:16.900Z,8.40
2022-10-19T12:15:53.807Z,10.90
2022-10-19T12:18:32.690Z,5.20
2022-10-19T12:21:09.575Z,5.20
2022-10-19T12:23:46.852Z,13.50
2022-10-19T12:26:22.360Z,5.00
2022-10-19T12:28:59.615Z,15.00
2022-10-19T12:31:32.781Z,8.30
2022-10-19T12:34:11.279Z,4.30
2022-10-19T12:36:49.073Z,8.50
2022-10-19T12:39:29.575Z,5.20
2022-10-19T12:42:10.797Z,6.50
2022-10-19T12:45:12.073Z,6.70
2022-10-19T12:48:25.985Z,7.80
2022-10-19T12:51:19.009Z,16.70
2022-10-19T12:53:51.850Z,15.90
2022-10-19T12:56:25.721Z,9.40
2022-10-19T12:59:01.590Z,5.60
2022-10-19T13:01:45.510Z,13.20
2022-10-19T13:04:20.573Z,13.80
2022-10-19T13:07:01.527Z,11.70
2022-10-19T13:09:36.892Z,14.30
2022-10-19T13:12:30.368Z,7.80
2022-10-19T13:15:03.857Z,10.70
2022-10-19T13:17:46.385Z,20.50
2022-10-19T13:20:54.604Z,15.50
2022-10-19T13:23:43.050Z,6.90
2022-10-19T13:26:34.373Z,6.00
2022-10-19T13:29:25.204Z,8.80
2022-10-19T13:32:17.202Z,10.90
2022-10-19T13:34:50.180Z,35.30
2022-10-19T13:37:22.607Z,28.90
2022-10-19T13:39:55.361Z,18.40
2022-10-19T13:42:29.363Z,13.00
2022-10-19T13:45:01.333Z,14.40
2022-10-19T13:47:40.656Z,15.50
2022-10-19T13:50:36.085Z,10.90
2022-10-19T13:53:33.300Z,11.30
2022-10-19T13:56:33.917Z,8.50
2022-10-19T13:59:33.502Z,10.10
2022-10-19T14:02:32.435Z,8.90
2022-10-19T14:05:21.541Z,8.10
2022-10-19T14:08:05.094Z,3.80
2022-10-19T14:11:00.039Z,5.90
2022-10-19T14:13:30.673Z,18.80
2022-10-19T14:16:03.208Z,11.50
2022-10-19T14:18:37.679Z,30.90
2022-10-19T14:21:11.442Z,24.40
2022-10-19T14:23:43.578Z,6.80
2022-10-19T14:26:20.669Z,6.80
2022-10-19T14:28:57.710Z,8.90
2022-10-19T14:31:35.741Z,14.60
2022-10-19T14:34:10.462Z,26.80
2022-10-19T14:39:29.767Z,16.90
2022-10-19T14:42:06.919Z,29.00
2022-10-19T14:44:42.307Z,14.70
2022-10-19T14:47:21.921Z,10.00
2022-10-19T14:49:54.521Z,22.70
2022-10-19T14:52:34.075Z,19.30
2022-10-19T14:55:12.766Z,16.70
2022-10-19T14:57:49.499Z,19.20
2022-10-19T15:03:06.301Z,13.60
2022-10-19T15:05:42.673Z,9.80
2022-10-19T15:08:24.508Z,7.60
2022-10-19T15:10:57.009Z,13.10
2022-10-19T15:13:32.857Z,22.50
2022-10-19T15:16:05.115Z,19.50
2022-10-19T15:18:49.222Z,18.90
2022-10-19T15:21:23.319Z,14.70
2022-10-19T15:23:55.529Z,34.60
2022-10-19T15:26:32.461Z,40.50
2022-10-19T15:29:20.679Z,27.00
2022-10-19T15:31:56.554Z,23.40
2022-10-19T15:34:31.013Z,23.30
2022-10-19T15:37:04.000Z,29.90
2022-10-19T15:39:42.137Z,40.60
2022-10-19T15:42:40.556Z,33.70
2022-10-19T15:45:34.355Z,21.30
2022-10-19T15:48:27.529Z,22.00
2022-10-19T15:50:59.740Z,25.30
2022-10-19T15:53:31.678Z,22.20
2022-10-19T15:58:40.565Z,20.80
2022-10-19T16:01:16.968Z,18.40
2022-10-19T16:03:50.058Z,21.50
2022-10-19T16:06:24.462Z,16.80
2022-10-19T16:08:56.628Z,18.10
2022-10-19T16:11:30.187Z,37.70
2022-10-19T16:14:02.260Z,33.50
2022-10-19T16:16:35.214Z,28.10
2022-10-19T16:19:07.264Z,23.80
2022-10-19T16:21:39.294Z,26.40
2022-10-19T16:24:12.412Z,20.90
2022-10-19T16:26:44.329Z,30.90
2022-10-19T16:29:16.300Z,28.60
2022-10-19T16:31:48.214Z,117.20
2022-10-19T16:34:20.250Z,91.60
2022-10-19T16:36:52.216Z,217.40
2022-10-19T16:39:25.661Z,97.10
2022-10-19T16:41:57.587Z,403.40
2022-10-19T16:44:29.653Z,440.40
2022-10-19T16:47:02.160Z,289.00
2022-10-19T16:49:34.231Z,129.50
2022-10-19T16:52:06.573Z,115.60
2022-10-19T16:54:38.748Z,99.30
2022-10-19T16:57:10.715Z,82.80
2022-10-19T16:59:42.704Z,89.00
2022-10-19T17:02:15.065Z,107.90
2022-10-19T17:04:47.208Z,68.10
2022-10-19T17:07:19.639Z,29.10
2022-10-19T17:09:56.752Z,49.60
2022-10-19T17:12:28.808Z,35.90
2022-10-19T17:15:29.854Z,28.20
2022-10-19T17:17:52.600Z,80.00
2022-10-19T17:20:24.590Z,83.10
2022-10-19T17:22:56.498Z,50.60
2022-10-19T17:25:28.631Z,46.50
2022-10-19T17:28:00.618Z,35.30
2022-10-19T17:30:32.646Z,42.70
2022-10-19T17:33:04.539Z,42.80
2022-10-19T17:35:37.935Z,98.40
2022-10-19T17:38:10.233Z,120.50
2022-10-19T17:40:42.240Z,110.20
2022-10-19T17:43:14.406Z,92.00
2022-10-19T17:45:46.318Z,118.40
2022-10-19T17:48:19.128Z,153.70
2022-10-19T17:51:00.732Z,153.70
2022-10-19T17:53:34.055Z,127.40
2022-10-19T17:56:08.233Z,110.00
2022-10-19T17:58:40.470Z,100.20
2022-10-19T18:01:13.714Z,87.10
2022-10-19T18:03:45.979Z,77.80
2022-10-19T18:06:22.177Z,115.50
2022-10-19T18:08:56.033Z,88.20
2022-10-19T18:11:29.998Z,145.00
2022-10-19T18:14:03.160Z,104.10
2022-10-19T18:16:37.256Z,108.90
2022-10-19T18:19:09.775Z,112.50
2022-10-19T18:21:44.064Z,75.60
2022-10-19T18:24:20.125Z,67.70
2022-10-19T18:26:53.292Z,92.40
2022-10-19T18:29:27.156Z,75.50
2022-10-19T18:31:59.259Z,70.20
2022-10-19T18:34:31.425Z,57.80
2022-10-19T18:37:03.449Z,69.90
2022-10-19T18:39:36.235Z,78.10
2022-10-19T18:42:08.238Z,104.40
2022-10-19T18:44:40.321Z,80.40
2022-10-19T18:47:12.685Z,56.70
2022-10-19T18:49:44.632Z,24.10
2022-10-19T18:52:16.595Z,50.80
2022-10-19T18:54:48.522Z,30.30
2022-10-19T18:57:20.511Z,50.50
2022-10-19T18:59:52.474Z,53.40
2022-10-19T19:02:34.933Z,71.20
2022-10-19T19:05:14.542Z,73.10
2022-10-19T19:07:46.503Z,58.10
2022-10-19T19:10:18.970Z,71.50
2022-10-19T19:12:52.182Z,56.60
2022-10-19T19:15:24.075Z,58.10
2022-10-19T19:17:57.777Z,85.30
2022-10-19T19:20:29.762Z,83.90
2022-10-19T19:23:01.885Z,82.30
2022-10-19T19:25:33.826Z,70.40
2022-10-19T19:28:05.791Z,70.50
2022-10-19T19:30:42.998Z,34.30
2022-10-19T19:33:15.523Z,40.80
2022-10-19T19:35:48.637Z,35.40
2022-10-19T19:38:20.765Z,33.70
2022-10-19T19:40:52.710Z,61.60
2022-10-19T19:43:24.766Z,82.60
2022-10-19T19:46:04.615Z,76.90
2022-10-19T19:48:40.738Z,87.70
2022-10-19T19:51:14.478Z,69.20
2022-10-19T19:53:47.262Z,43.90
2022-10-19T19:56:20.721Z,58.00
2022-10-19T19:58:57.052Z,37.80
2022-10-19T20:01:29.379Z,55.90
2022-10-19T20:06:41.499Z,33.50
2022-10-19T20:09:13.500Z,30.90
2022-10-19T20:11:46.754Z,28.10
2022-10-19T20:14:18.887Z,70.20
2022-10-19T20:16:51.169Z,107.90
2022-10-19T20:19:23.180Z,137.40
2022-10-19T20:21:56.404Z,141.80
2022-10-19T20:24:28.481Z,95.00
2022-10-19T20:27:00.455Z,56.60
2022-10-19T20:29:32.560Z,39.50
2022-10-19T20:32:04.505Z,38.80
2022-10-19T20:34:37.468Z,29.60
2022-10-19T20:37:10.254Z,40.40
2022-10-19T20:39:42.176Z,75.20
2022-10-19T20:42:14.260Z,93.10
2022-10-19T20:44:46.622Z,94.20
2022-10-19T20:47:18.562Z,68.50
2022-10-19T20:49:50.671Z,49.80
2022-10-19T20:52:22.688Z,40.40
2022-10-19T20:54:54.655Z,37.70
2022-10-19T20:57:26.658Z,32.60
2022-10-19T20:59:58.624Z,20.40
2022-10-19T21:02:30.556Z,21.80
2022-10-19T21:05:02.552Z,14.50
2022-10-19T21:07:34.480Z,15.70
2022-10-19T21:10:07.191Z,19.10
2022-10-19T21:12:39.152Z,18.00
2022-10-19T21:15:12.582Z,15.50
2022-10-19T21:17:44.539Z,17.50
2022-10-19T21:20:16.740Z,23.20
2022-10-19T21:22:48.679Z,30.80
2022-10-19T21:25:20.734Z,25.70
2022-10-19T21:27:55.565Z,27.20
2022-10-19T21:30:28.034Z,23.60
2022-10-19T21:32:59.960Z,21.10
2022-10-19T21:35:31.963Z,20.80
2022-10-19T21:38:03.894Z,22.30
2022-10-19T21:40:37.796Z,17.60
2022-10-19T21:43:11.401Z,12.20
2022-10-19T21:45:43.397Z,10.50
2022-10-19T21:48:15.451Z,8.50
2022-10-19T21:50:47.459Z,12.30
2022-10-19T21:53:23.660Z,10.30
2022-10-19T21:55:56.352Z,16.90
2022-10-19T21:58:29.054Z,11.50
2022-10-19T22:01:08.709Z,11.00
2022-10-19T22:03:40.893Z,10.40
2022-10-19T22:06:14.121Z,13.10
2022-10-19T22:08:49.306Z,11.60
2022-10-19T22:11:21.737Z,14.00
2022-10-19T22:13:56.926Z,18.30
2022-10-19T22:16:30.474Z,14.70
2022-10-19T22:19:02.463Z,19.20
2022-10-19T22:21:35.713Z,15.40
2022-10-19T22:24:10.865Z,13.60
2022-10-19T22:26:44.944Z,9.40
2022-10-19T22:29:17.015Z,7.70
2022-10-19T22:31:49.065Z,7.60
2022-10-19T22:34:21.221Z,7.40
2022-10-19T22:36:53.503Z,9.50
2022-10-19T22:39:27.792Z,6.20
2022-10-19T22:42:52.950Z,8.90
2022-10-19T22:45:39.938Z,7.80
2022-10-19T22:48:12.014Z,9.70
2022-10-19T22:50:44.560Z,9.00
2022-10-19T22:53:16.485Z,10.10
2022-10-19T22:55:48.450Z,9.60
2022-10-19T22:58:20.765Z,10.40
2022-10-19T23:01:03.600Z,9.10
2022-10-19T23:03:36.314Z,8.90
2022-10-19T23:06:09.430Z,13.30
2022-10-19T23:08:41.912Z,13.30
2022-10-19T23:11:14.468Z,13.50
2022-10-19T23:13:46.403Z,14.00
2022-10-19T23:16:18.404Z,13.20
2022-10-19T23:18:50.474Z,11.60
2022-10-19T23:21:22.602Z,17.60
2022-10-19T23:23:54.750Z,17.20
2022-10-19T23:26:27.036Z,15.40
2022-10-19T23:28:58.911Z,14.90
2022-10-19T23:31:31.238Z,12.60
2022-10-19T23:34:03.165Z,15.10
2022-10-19T23:36:35.107Z,16.70
2022-10-19T23:39:07.780Z,17.20
2022-10-19T23:41:39.706Z,16.80
2022-10-19T23:44:12.084Z,13.80
2022-10-19T23:46:44.115Z,12.00
2022-10-19T23:49:16.445Z,11.90
2022-10-19T23:51:48.461Z,10.40
2022-10-19T23:54:20.370Z,11.90
2022-10-19T23:56:52.370Z,25.20
2022-10-19T23:59:24.642Z,23.80
